Chantilly, VA (20152)

2:56 PM EDT on September 19, 2017 (GMT -0400)
South Riding | | Change Station

Elev 335 ft 38.90 °N, 77.50 °W | Updated 20 seconds ago

Partly Cloudy
Partly Cloudy
81.0 °F
Feels Like 84 °F
N
2.0
Wind Variable Wind from SE

Today
High -- | Low -- °F
--% Chance of Precip.
Yesterday
High -- | Low -- °F
Precip. -- in
Pressure 29.96 in
Visibility 10.0 miles
Clouds Scattered Clouds 2700 ft
Scattered Clouds 3200 ft
Heat Index 84 °F
Dew Point 68 °F
Humidity 65%
Rainfall 0.00 in
Snow Depth Not available.
6:55 AM 7:11 PM
Waning Crescent, 0% visible
METAR KIAD 191752Z 01010KT 10SM SCT027 SCT032 27/19 A2997 RMK AO2 SLP144 T02670189 10267 20194 58020
Pressure 29.96 in
Visibility 10.0 miles
Clouds Scattered Clouds 2700 ft
Scattered Clouds 3200 ft
Heat Index 84 °F
Dew Point 68 °F
Humidity 65%
Rainfall 0.00 in
Snow Depth Not available.
6:55 AM 7:11 PM
Waning Crescent, 0% visible
METAR KIAD 191752Z 01010KT 10SM SCT027 SCT032 27/19 A2997 RMK AO2 SLP144 T02670189 10267 20194 58020

Get Severe Weather Alerts

Thanks for signing up!

Be on the lookout for a verification email in your inbox.

You'll start receiving the daily forecast at 6 AM.

×

10-Day Weather Forecast

Almanac

Astronomy

Sep. 19, 2017 Rise Set
Actual Time
Civil Twilight
Nautical Twilight
Astronomical Twilight
Moon
Length of Visible Light
Length of Day
Tomorrow will be .
, % of the Moon is Illuminated

Today's Extremes

State Highs State Lows

Community

WunderPhotos

Category 6

Welcome to Category 6. This is the collective home for Weather Underground's featured writeups by Dr. Jeff Masters (right), Bob Henson (left), Chris Burt, and other regular contributors.

Nearby

Air Quality

  Air Quality AQ Index Pollutant
Not available.

Snow Depth

Station Depth Elevation

Earthquake Activity

City Distance Mag. Time & Date
Minimum magnitude displayed is 2.5.

Coastal Water Temperatures

Place Temperature

Stations

Nearby Weather Stations

Station Location Temp. Windchill Dew Point Humidity Wind Precip. Elev Updated Type
                   

Watches & Warnings

There are currently no watches in effect.